Limestone, New York
Current Conditions -  °F | °C
As of 11:53 PM on Sunday 19 Oct 2014 (Local Time) from KBFD Reporting Station
Clear Clear  
Wind Chill: 31°   Ceiling: Unl
Heat Index: 31°   Visibility: 10mi
Dew Point: 28°   Wind: 3mph
Humidity: 89%   Direction: 120°ESE
Pressure: 30.02"   Gusts: NA
Location:  42.03°N, 78.63°W
Report Text: KBFD 200353Z AUTO 12003KT 10SM CLR M01/M02 A3002 RMK AO2 SLP181 T10061022
Loading
Personal Weather Stations






























Interactive Weather Map
Tropical Storm Tracking
New forecast layout! Learn more

10-Day Weather Forecast

Advertisements
Track Severe Weather on mobile